sensor_id;sensor_type;location;lat;lon;timestamp;P1;durP1;ratioP1;P2;durP2;ratioP2
12407;SDS011;6268;48.188;17.134;2022-12-18T00:01:04;21.80;;;16.23;;
12407;SDS011;6268;48.188;17.134;2022-12-18T00:03:41;23.63;;;16.57;;
12407;SDS011;6268;48.188;17.134;2022-12-18T00:06:11;25.20;;;17.37;;
12407;SDS011;6268;48.188;17.134;2022-12-18T00:08:41;23.77;;;16.07;;
12407;SDS011;6268;48.188;17.134;2022-12-18T00:11:11;25.33;;;16.53;;
12407;SDS011;6268;48.188;17.134;2022-12-18T00:13:42;24.47;;;15.87;;
12407;SDS011;6268;48.188;17.134;2022-12-18T00:16:12;25.93;;;15.80;;
12407;SDS011;6268;48.188;17.134;2022-12-18T00:18:42;24.37;;;16.50;;
12407;SDS011;6268;48.188;17.134;2022-12-18T00:21:11;26.43;;;17.40;;
12407;SDS011;6268;48.188;17.134;2022-12-18T00:23:42;25.53;;;16.23;;
12407;SDS011;6268;48.188;17.134;2022-12-18T00:26:12;30.77;;;18.07;;
12407;SDS011;6268;48.188;17.134;2022-12-18T00:28:44;27.00;;;18.33;;
12407;SDS011;6268;48.188;17.134;2022-12-18T00:31:15;30.13;;;18.07;;
12407;SDS011;6268;48.188;17.134;2022-12-18T00:33:46;27.07;;;17.47;;
12407;SDS011;6268;48.188;17.134;2022-12-18T00:36:21;27.43;;;17.87;;
12407;SDS011;6268;48.188;17.134;2022-12-18T00:38:52;28.63;;;18.63;;
12407;SDS011;6268;48.188;17.134;2022-12-18T00:41:22;31.67;;;19.83;;
12407;SDS011;6268;48.188;17.134;2022-12-18T00:44:13;33.70;;;22.20;;
12407;SDS011;6268;48.188;17.134;2022-12-18T00:46:43;30.37;;;18.60;;
12407;SDS011;6268;48.188;17.134;2022-12-18T00:49:13;28.37;;;17.33;;
12407;SDS011;6268;48.188;17.134;2022-12-18T00:51:42;27.37;;;17.30;;
12407;SDS011;6268;48.188;17.134;2022-12-18T00:54:11;28.27;;;18.57;;
12407;SDS011;6268;48.188;17.134;2022-12-18T00:56:41;27.90;;;18.23;;
12407;SDS011;6268;48.188;17.134;2022-12-18T00:59:16;26.00;;;17.13;;
12407;SDS011;6268;48.188;17.134;2022-12-18T01:01:46;24.50;;;16.87;;
12407;SDS011;6268;48.188;17.134;2022-12-18T01:04:15;27.97;;;18.07;;
12407;SDS011;6268;48.188;17.134;2022-12-18T01:06:44;26.13;;;18.10;;
12407;SDS011;6268;48.188;17.134;2022-12-18T01:09:13;26.17;;;17.10;;
12407;SDS011;6268;48.188;17.134;2022-12-18T01:11:42;25.93;;;16.90;;
12407;SDS011;6268;48.188;17.134;2022-12-18T01:14:11;23.90;;;17.00;;
12407;SDS011;6268;48.188;17.134;2022-12-18T01:16:41;26.30;;;16.80;;
12407;SDS011;6268;48.188;17.134;2022-12-18T01:19:10;23.07;;;16.00;;
12407;SDS011;6268;48.188;17.134;2022-12-18T01:21:39;25.33;;;17.10;;
12407;SDS011;6268;48.188;17.134;2022-12-18T01:24:09;28.03;;;17.77;;
12407;SDS011;6268;48.188;17.134;2022-12-18T01:26:39;25.77;;;17.10;;
12407;SDS011;6268;48.188;17.134;2022-12-18T01:29:08;26.47;;;17.37;;
12407;SDS011;6268;48.188;17.134;2022-12-18T01:31:37;25.20;;;16.93;;
12407;SDS011;6268;48.188;17.134;2022-12-18T01:34:08;24.63;;;16.60;;
12407;SDS011;6268;48.188;17.134;2022-12-18T01:36:38;21.27;;;15.40;;
12407;SDS011;6268;48.188;17.134;2022-12-18T01:39:09;25.07;;;16.23;;
12407;SDS011;6268;48.188;17.134;2022-12-18T01:41:39;25.33;;;16.60;;
12407;SDS011;6268;48.188;17.134;2022-12-18T01:47:30;27.20;;;17.17;;
12407;SDS011;6268;48.188;17.134;2022-12-18T01:50:06;25.60;;;17.47;;
12407;SDS011;6268;48.188;17.134;2022-12-18T01:52:45;25.27;;;17.00;;
12407;SDS011;6268;48.188;17.134;2022-12-18T01:55:17;24.57;;;17.67;;
12407;SDS011;6268;48.188;17.134;2022-12-18T01:57:48;24.43;;;17.20;;
12407;SDS011;6268;48.188;17.134;2022-12-18T02:00:20;25.30;;;17.37;;
12407;SDS011;6268;48.188;17.134;2022-12-18T02:02:51;27.70;;;18.40;;
12407;SDS011;6268;48.188;17.134;2022-12-18T02:05:23;24.80;;;16.53;;
12407;SDS011;6268;48.188;17.134;2022-12-18T02:08:01;26.77;;;17.07;;
12407;SDS011;6268;48.188;17.134;2022-12-18T02:10:39;26.03;;;17.17;;
12407;SDS011;6268;48.188;17.134;2022-12-18T02:13:14;25.47;;;17.13;;
12407;SDS011;6268;48.188;17.134;2022-12-18T02:15:51;25.77;;;17.13;;
12407;SDS011;6268;48.188;17.134;2022-12-18T02:18:27;25.27;;;16.53;;
12407;SDS011;6268;48.188;17.134;2022-12-18T02:21:04;26.93;;;17.53;;
12407;SDS011;6268;48.188;17.134;2022-12-18T02:23:42;23.37;;;16.30;;
12407;SDS011;6268;48.188;17.134;2022-12-18T02:26:21;28.17;;;18.37;;
12407;SDS011;6268;48.188;17.134;2022-12-18T02:28:56;25.93;;;16.50;;
12407;SDS011;6268;48.188;17.134;2022-12-18T02:31:30;26.43;;;18.70;;
12407;SDS011;6268;48.188;17.134;2022-12-18T02:34:03;29.60;;;17.83;;
12407;SDS011;6268;48.188;17.134;2022-12-18T02:36:36;28.33;;;17.33;;
12407;SDS011;6268;48.188;17.134;2022-12-18T02:39:09;22.53;;;16.10;;
12407;SDS011;6268;48.188;17.134;2022-12-18T02:41:41;25.40;;;16.97;;
12407;SDS011;6268;48.188;17.134;2022-12-18T02:44:11;25.33;;;16.27;;
12407;SDS011;6268;48.188;17.134;2022-12-18T02:46:41;23.67;;;16.20;;
12407;SDS011;6268;48.188;17.134;2022-12-18T02:49:17;25.43;;;16.80;;
12407;SDS011;6268;48.188;17.134;2022-12-18T02:51:55;24.33;;;17.50;;
12407;SDS011;6268;48.188;17.134;2022-12-18T02:54:33;22.83;;;16.43;;
12407;SDS011;6268;48.188;17.134;2022-12-18T02:57:16;29.63;;;17.57;;
12407;SDS011;6268;48.188;17.134;2022-12-18T02:59:54;24.47;;;16.33;;
12407;SDS011;6268;48.188;17.134;2022-12-18T03:02:29;26.37;;;16.70;;
12407;SDS011;6268;48.188;17.134;2022-12-18T03:05:04;27.33;;;16.27;;
12407;SDS011;6268;48.188;17.134;2022-12-18T03:07:42;24.90;;;16.37;;
12407;SDS011;6268;48.188;17.134;2022-12-18T03:10:14;25.27;;;17.30;;
12407;SDS011;6268;48.188;17.134;2022-12-18T03:12:50;23.53;;;15.93;;
12407;SDS011;6268;48.188;17.134;2022-12-18T03:15:25;26.77;;;17.37;;
12407;SDS011;6268;48.188;17.134;2022-12-18T03:17:56;27.10;;;17.47;;
12407;SDS011;6268;48.188;17.134;2022-12-18T03:20:29;27.27;;;17.30;;
12407;SDS011;6268;48.188;17.134;2022-12-18T03:23:02;29.97;;;18.73;;
12407;SDS011;6268;48.188;17.134;2022-12-18T03:25:36;27.33;;;17.57;;
12407;SDS011;6268;48.188;17.134;2022-12-18T03:28:12;27.73;;;17.20;;
12407;SDS011;6268;48.188;17.134;2022-12-18T03:30:43;28.17;;;17.90;;
12407;SDS011;6268;48.188;17.134;2022-12-18T03:33:15;31.00;;;18.70;;
12407;SDS011;6268;48.188;17.134;2022-12-18T03:35:48;26.73;;;16.73;;
12407;SDS011;6268;48.188;17.134;2022-12-18T03:38:18;27.73;;;16.90;;
12407;SDS011;6268;48.188;17.134;2022-12-18T03:40:51;27.33;;;17.50;;
12407;SDS011;6268;48.188;17.134;2022-12-18T03:43:32;30.00;;;18.60;;
12407;SDS011;6268;48.188;17.134;2022-12-18T03:46:11;27.33;;;17.30;;
12407;SDS011;6268;48.188;17.134;2022-12-18T03:48:51;24.77;;;17.63;;
12407;SDS011;6268;48.188;17.134;2022-12-18T03:51:27;28.47;;;17.93;;
12407;SDS011;6268;48.188;17.134;2022-12-18T03:54:03;29.37;;;18.77;;
12407;SDS011;6268;48.188;17.134;2022-12-18T03:56:35;26.87;;;17.87;;
12407;SDS011;6268;48.188;17.134;2022-12-18T03:59:09;30.07;;;18.07;;
12407;SDS011;6268;48.188;17.134;2022-12-18T04:01:43;27.80;;;17.77;;
12407;SDS011;6268;48.188;17.134;2022-12-18T04:04:17;27.10;;;17.50;;
12407;SDS011;6268;48.188;17.134;2022-12-18T04:06:46;31.83;;;18.60;;
12407;SDS011;6268;48.188;17.134;2022-12-18T04:09:17;32.17;;;19.53;;
12407;SDS011;6268;48.188;17.134;2022-12-18T04:11:47;27.67;;;17.63;;
12407;SDS011;6268;48.188;17.134;2022-12-18T04:14:17;30.00;;;18.33;;
12407;SDS011;6268;48.188;17.134;2022-12-18T04:16:46;30.87;;;19.20;;
12407;SDS011;6268;48.188;17.134;2022-12-18T04:19:15;29.80;;;17.93;;
12407;SDS011;6268;48.188;17.134;2022-12-18T04:21:44;28.77;;;18.23;;
12407;SDS011;6268;48.188;17.134;2022-12-18T04:24:13;30.43;;;18.53;;
12407;SDS011;6268;48.188;17.134;2022-12-18T04:26:42;29.33;;;17.40;;
12407;SDS011;6268;48.188;17.134;2022-12-18T04:29:11;27.80;;;17.70;;
12407;SDS011;6268;48.188;17.134;2022-12-18T04:31:41;28.67;;;17.63;;
12407;SDS011;6268;48.188;17.134;2022-12-18T04:34:10;30.57;;;17.90;;
12407;SDS011;6268;48.188;17.134;2022-12-18T04:36:39;29.17;;;18.30;;
12407;SDS011;6268;48.188;17.134;2022-12-18T04:39:08;32.90;;;18.93;;
12407;SDS011;6268;48.188;17.134;2022-12-18T04:41:37;27.90;;;17.57;;
12407;SDS011;6268;48.188;17.134;2022-12-18T04:44:06;28.93;;;16.97;;
12407;SDS011;6268;48.188;17.134;2022-12-18T04:46:34;29.90;;;18.37;;
12407;SDS011;6268;48.188;17.134;2022-12-18T04:49:05;29.93;;;17.83;;
12407;SDS011;6268;48.188;17.134;2022-12-18T04:51:34;28.93;;;17.97;;
12407;SDS011;6268;48.188;17.134;2022-12-18T04:54:03;30.30;;;18.37;;
12407;SDS011;6268;48.188;17.134;2022-12-18T04:56:32;28.37;;;18.00;;
12407;SDS011;6268;48.188;17.134;2022-12-18T04:59:01;29.50;;;18.33;;
12407;SDS011;6268;48.188;17.134;2022-12-18T05:01:31;29.17;;;17.30;;
12407;SDS011;6268;48.188;17.134;2022-12-18T05:04:00;30.50;;;18.07;;
12407;SDS011;6268;48.188;17.134;2022-12-18T05:06:32;29.53;;;17.47;;
12407;SDS011;6268;48.188;17.134;2022-12-18T05:09:01;33.23;;;20.10;;
12407;SDS011;6268;48.188;17.134;2022-12-18T05:11:31;28.63;;;17.80;;
12407;SDS011;6268;48.188;17.134;2022-12-18T05:14:00;33.33;;;19.23;;
12407;SDS011;6268;48.188;17.134;2022-12-18T05:16:29;30.40;;;18.50;;
12407;SDS011;6268;48.188;17.134;2022-12-18T05:18:58;31.23;;;18.60;;
12407;SDS011;6268;48.188;17.134;2022-12-18T05:21:27;30.50;;;19.17;;
12407;SDS011;6268;48.188;17.134;2022-12-18T05:23:57;31.93;;;18.90;;
12407;SDS011;6268;48.188;17.134;2022-12-18T05:26:26;33.93;;;19.77;;
12407;SDS011;6268;48.188;17.134;2022-12-18T05:28:55;35.27;;;20.30;;
12407;SDS011;6268;48.188;17.134;2022-12-18T05:31:24;33.00;;;19.17;;
12407;SDS011;6268;48.188;17.134;2022-12-18T05:33:53;33.87;;;20.30;;
12407;SDS011;6268;48.188;17.134;2022-12-18T05:36:22;36.10;;;20.10;;
12407;SDS011;6268;48.188;17.134;2022-12-18T05:38:51;33.30;;;19.73;;
12407;SDS011;6268;48.188;17.134;2022-12-18T05:41:21;31.27;;;18.67;;
12407;SDS011;6268;48.188;17.134;2022-12-18T05:43:50;31.83;;;18.23;;
12407;SDS011;6268;48.188;17.134;2022-12-18T05:46:19;29.27;;;17.80;;
12407;SDS011;6268;48.188;17.134;2022-12-18T05:48:48;29.20;;;17.97;;
12407;SDS011;6268;48.188;17.134;2022-12-18T05:51:19;27.73;;;17.90;;
12407;SDS011;6268;48.188;17.134;2022-12-18T05:53:49;31.50;;;16.93;;
12407;SDS011;6268;48.188;17.134;2022-12-18T05:56:18;31.37;;;18.30;;
12407;SDS011;6268;48.188;17.134;2022-12-18T05:58:51;29.00;;;17.70;;
12407;SDS011;6268;48.188;17.134;2022-12-18T06:01:22;30.17;;;18.50;;
12407;SDS011;6268;48.188;17.134;2022-12-18T06:03:52;31.77;;;18.63;;
12407;SDS011;6268;48.188;17.134;2022-12-18T06:06:22;28.53;;;18.03;;
12407;SDS011;6268;48.188;17.134;2022-12-18T06:08:53;34.00;;;20.33;;
12407;SDS011;6268;48.188;17.134;2022-12-18T06:11:23;39.33;;;23.27;;
12407;SDS011;6268;48.188;17.134;2022-12-18T06:13:55;35.47;;;21.37;;
12407;SDS011;6268;48.188;17.134;2022-12-18T06:16:26;31.93;;;20.50;;
12407;SDS011;6268;48.188;17.134;2022-12-18T06:18:56;33.60;;;20.13;;
12407;SDS011;6268;48.188;17.134;2022-12-18T06:21:26;33.13;;;19.93;;
12407;SDS011;6268;48.188;17.134;2022-12-18T06:23:55;35.33;;;21.43;;
12407;SDS011;6268;48.188;17.134;2022-12-18T06:26:24;35.37;;;20.43;;
12407;SDS011;6268;48.188;17.134;2022-12-18T06:28:55;32.90;;;18.30;;
12407;SDS011;6268;48.188;17.134;2022-12-18T06:31:24;30.27;;;18.50;;
12407;SDS011;6268;48.188;17.134;2022-12-18T06:33:54;33.70;;;19.60;;
12407;SDS011;6268;48.188;17.134;2022-12-18T06:36:23;30.93;;;18.43;;
12407;SDS011;6268;48.188;17.134;2022-12-18T06:38:52;31.43;;;18.33;;
12407;SDS011;6268;48.188;17.134;2022-12-18T06:41:21;30.73;;;18.60;;
12407;SDS011;6268;48.188;17.134;2022-12-18T06:43:50;31.27;;;18.83;;
12407;SDS011;6268;48.188;17.134;2022-12-18T06:46:26;27.13;;;16.57;;
12407;SDS011;6268;48.188;17.134;2022-12-18T06:48:55;31.50;;;18.67;;
12407;SDS011;6268;48.188;17.134;2022-12-18T06:51:24;30.10;;;18.37;;
12407;SDS011;6268;48.188;17.134;2022-12-18T06:53:53;33.00;;;19.10;;
12407;SDS011;6268;48.188;17.134;2022-12-18T06:56:22;30.70;;;19.13;;
12407;SDS011;6268;48.188;17.134;2022-12-18T06:58:51;33.20;;;18.63;;
12407;SDS011;6268;48.188;17.134;2022-12-18T07:01:20;30.60;;;18.07;;
12407;SDS011;6268;48.188;17.134;2022-12-18T07:03:52;26.50;;;17.17;;
12407;SDS011;6268;48.188;17.134;2022-12-18T07:06:23;28.73;;;18.13;;
12407;SDS011;6268;48.188;17.134;2022-12-18T07:08:53;27.33;;;18.10;;
12407;SDS011;6268;48.188;17.134;2022-12-18T07:11:22;27.30;;;16.77;;
12407;SDS011;6268;48.188;17.134;2022-12-18T07:13:52;29.33;;;17.77;;
12407;SDS011;6268;48.188;17.134;2022-12-18T07:16:21;34.00;;;19.37;;
12407;SDS011;6268;48.188;17.134;2022-12-18T07:18:53;28.33;;;17.63;;
12407;SDS011;6268;48.188;17.134;2022-12-18T07:21:23;31.00;;;17.90;;
12407;SDS011;6268;48.188;17.134;2022-12-18T07:23:52;27.70;;;17.10;;
12407;SDS011;6268;48.188;17.134;2022-12-18T07:26:21;29.63;;;17.57;;
12407;SDS011;6268;48.188;17.134;2022-12-18T07:28:54;32.77;;;18.67;;
12407;SDS011;6268;48.188;17.134;2022-12-18T07:31:24;32.07;;;18.27;;
12407;SDS011;6268;48.188;17.134;2022-12-18T07:33:55;31.40;;;19.13;;
12407;SDS011;6268;48.188;17.134;2022-12-18T07:36:24;26.17;;;17.60;;
12407;SDS011;6268;48.188;17.134;2022-12-18T07:38:53;29.63;;;17.83;;
12407;SDS011;6268;48.188;17.134;2022-12-18T07:41:22;29.50;;;18.27;;
12407;SDS011;6268;48.188;17.134;2022-12-18T07:43:51;31.60;;;17.67;;
12407;SDS011;6268;48.188;17.134;2022-12-18T07:46:20;29.53;;;18.57;;
12407;SDS011;6268;48.188;17.134;2022-12-18T07:48:49;28.60;;;17.53;;
12407;SDS011;6268;48.188;17.134;2022-12-18T07:51:20;30.37;;;19.00;;
12407;SDS011;6268;48.188;17.134;2022-12-18T07:53:49;28.03;;;18.03;;
12407;SDS011;6268;48.188;17.134;2022-12-18T07:56:18;28.67;;;18.40;;
12407;SDS011;6268;48.188;17.134;2022-12-18T07:58:57;32.27;;;19.27;;
12407;SDS011;6268;48.188;17.134;2022-12-18T08:01:29;30.60;;;19.00;;
12407;SDS011;6268;48.188;17.134;2022-12-18T08:03:58;30.00;;;19.10;;
12407;SDS011;6268;48.188;17.134;2022-12-18T08:06:28;34.03;;;19.67;;
12407;SDS011;6268;48.188;17.134;2022-12-18T08:08:57;31.10;;;19.37;;
12407;SDS011;6268;48.188;17.134;2022-12-18T08:11:27;29.90;;;19.93;;
12407;SDS011;6268;48.188;17.134;2022-12-18T08:13:57;30.47;;;19.80;;
12407;SDS011;6268;48.188;17.134;2022-12-18T08:16:26;31.37;;;20.27;;
12407;SDS011;6268;48.188;17.134;2022-12-18T08:18:55;32.07;;;21.90;;
12407;SDS011;6268;48.188;17.134;2022-12-18T08:21:25;34.30;;;21.40;;
12407;SDS011;6268;48.188;17.134;2022-12-18T08:23:58;34.17;;;21.83;;
12407;SDS011;6268;48.188;17.134;2022-12-18T08:26:28;33.33;;;21.60;;
12407;SDS011;6268;48.188;17.134;2022-12-18T08:28:58;35.97;;;23.07;;
12407;SDS011;6268;48.188;17.134;2022-12-18T08:31:29;35.90;;;23.57;;
12407;SDS011;6268;48.188;17.134;2022-12-18T08:33:59;33.47;;;22.10;;
12407;SDS011;6268;48.188;17.134;2022-12-18T08:36:29;40.40;;;24.27;;
12407;SDS011;6268;48.188;17.134;2022-12-18T08:38:59;40.00;;;24.97;;
12407;SDS011;6268;48.188;17.134;2022-12-18T08:41:27;37.73;;;25.03;;
12407;SDS011;6268;48.188;17.134;2022-12-18T08:43:58;39.13;;;25.67;;
12407;SDS011;6268;48.188;17.134;2022-12-18T08:46:44;37.03;;;24.10;;
12407;SDS011;6268;48.188;17.134;2022-12-18T08:49:13;39.33;;;25.23;;
12407;SDS011;6268;48.188;17.134;2022-12-18T08:51:43;39.90;;;25.93;;
12407;SDS011;6268;48.188;17.134;2022-12-18T08:54:12;42.50;;;27.50;;
12407;SDS011;6268;48.188;17.134;2022-12-18T08:56:41;38.20;;;26.30;;
12407;SDS011;6268;48.188;17.134;2022-12-18T08:59:10;43.47;;;26.93;;
12407;SDS011;6268;48.188;17.134;2022-12-18T09:01:45;42.17;;;27.80;;
12407;SDS011;6268;48.188;17.134;2022-12-18T09:04:15;43.87;;;28.67;;
12407;SDS011;6268;48.188;17.134;2022-12-18T09:06:45;46.30;;;28.50;;
12407;SDS011;6268;48.188;17.134;2022-12-18T09:09:14;45.80;;;28.43;;
12407;SDS011;6268;48.188;17.134;2022-12-18T09:11:43;38.83;;;26.70;;
12407;SDS011;6268;48.188;17.134;2022-12-18T09:14:12;44.10;;;27.77;;
12407;SDS011;6268;48.188;17.134;2022-12-18T09:16:41;43.53;;;27.57;;
12407;SDS011;6268;48.188;17.134;2022-12-18T09:19:10;42.33;;;27.23;;
12407;SDS011;6268;48.188;17.134;2022-12-18T09:21:41;39.63;;;26.63;;
12407;SDS011;6268;48.188;17.134;2022-12-18T09:24:15;42.10;;;27.83;;
12407;SDS011;6268;48.188;17.134;2022-12-18T09:26:44;43.10;;;28.47;;
12407;SDS011;6268;48.188;17.134;2022-12-18T09:29:13;42.60;;;27.33;;
12407;SDS011;6268;48.188;17.134;2022-12-18T09:31:44;44.93;;;26.90;;
12407;SDS011;6268;48.188;17.134;2022-12-18T09:34:13;42.13;;;28.07;;
12407;SDS011;6268;48.188;17.134;2022-12-18T09:36:43;46.63;;;28.63;;
12407;SDS011;6268;48.188;17.134;2022-12-18T09:39:12;40.27;;;25.90;;
12407;SDS011;6268;48.188;17.134;2022-12-18T09:41:46;42.00;;;27.70;;
12407;SDS011;6268;48.188;17.134;2022-12-18T09:44:21;42.97;;;29.17;;
12407;SDS011;6268;48.188;17.134;2022-12-18T09:46:54;42.37;;;30.07;;
12407;SDS011;6268;48.188;17.134;2022-12-18T09:49:33;43.50;;;28.53;;
12407;SDS011;6268;48.188;17.134;2022-12-18T09:52:07;44.87;;;29.43;;
12407;SDS011;6268;48.188;17.134;2022-12-18T09:54:40;42.13;;;29.50;;
12407;SDS011;6268;48.188;17.134;2022-12-18T09:57:13;41.90;;;28.50;;
12407;SDS011;6268;48.188;17.134;2022-12-18T09:59:44;42.67;;;28.70;;
12407;SDS011;6268;48.188;17.134;2022-12-18T10:02:19;49.00;;;34.50;;
12407;SDS011;6268;48.188;17.134;2022-12-18T10:04:54;44.83;;;32.13;;
12407;SDS011;6268;48.188;17.134;2022-12-18T10:07:38;48.67;;;32.73;;
12407;SDS011;6268;48.188;17.134;2022-12-18T10:10:19;50.13;;;34.40;;
12407;SDS011;6268;48.188;17.134;2022-12-18T10:13:10;48.27;;;33.33;;
12407;SDS011;6268;48.188;17.134;2022-12-18T10:15:49;43.27;;;32.87;;
12407;SDS011;6268;48.188;17.134;2022-12-18T10:18:31;50.83;;;35.07;;
12407;SDS011;6268;48.188;17.134;2022-12-18T10:21:10;49.30;;;33.23;;
12407;SDS011;6268;48.188;17.134;2022-12-18T10:23:47;47.60;;;32.23;;
12407;SDS011;6268;48.188;17.134;2022-12-18T10:26:25;46.33;;;30.67;;
12407;SDS011;6268;48.188;17.134;2022-12-18T10:28:54;45.03;;;30.07;;
12407;SDS011;6268;48.188;17.134;2022-12-18T10:31:31;47.20;;;29.87;;
12407;SDS011;6268;48.188;17.134;2022-12-18T10:34:00;46.67;;;31.23;;
12407;SDS011;6268;48.188;17.134;2022-12-18T10:36:29;42.83;;;28.90;;
12407;SDS011;6268;48.188;17.134;2022-12-18T10:39:03;43.77;;;30.10;;
12407;SDS011;6268;48.188;17.134;2022-12-18T10:41:45;45.13;;;29.93;;
12407;SDS011;6268;48.188;17.134;2022-12-18T10:44:18;46.17;;;29.83;;
12407;SDS011;6268;48.188;17.134;2022-12-18T10:46:48;42.77;;;28.80;;
12407;SDS011;6268;48.188;17.134;2022-12-18T10:49:19;45.97;;;31.40;;
12407;SDS011;6268;48.188;17.134;2022-12-18T10:51:51;42.17;;;30.53;;
12407;SDS011;6268;48.188;17.134;2022-12-18T10:54:32;41.40;;;30.30;;
12407;SDS011;6268;48.188;17.134;2022-12-18T10:57:17;44.23;;;30.27;;
12407;SDS011;6268;48.188;17.134;2022-12-18T10:59:59;44.80;;;29.73;;
12407;SDS011;6268;48.188;17.134;2022-12-18T11:02:48;45.13;;;30.73;;
12407;SDS011;6268;48.188;17.134;2022-12-18T11:05:28;46.60;;;31.90;;
12407;SDS011;6268;48.188;17.134;2022-12-18T11:07:59;40.83;;;29.63;;
12407;SDS011;6268;48.188;17.134;2022-12-18T11:10:30;41.30;;;29.67;;
12407;SDS011;6268;48.188;17.134;2022-12-18T11:13:15;50.33;;;30.50;;
12407;SDS011;6268;48.188;17.134;2022-12-18T11:15:46;42.13;;;29.40;;
12407;SDS011;6268;48.188;17.134;2022-12-18T11:18:19;43.23;;;29.17;;
12407;SDS011;6268;48.188;17.134;2022-12-18T11:20:53;39.83;;;29.00;;
12407;SDS011;6268;48.188;17.134;2022-12-18T11:23:25;43.47;;;30.47;;
12407;SDS011;6268;48.188;17.134;2022-12-18T11:25:56;40.73;;;28.37;;
12407;SDS011;6268;48.188;17.134;2022-12-18T11:28:29;43.97;;;29.10;;
12407;SDS011;6268;48.188;17.134;2022-12-18T11:31:09;43.50;;;29.00;;
12407;SDS011;6268;48.188;17.134;2022-12-18T11:33:44;40.40;;;27.57;;
12407;SDS011;6268;48.188;17.134;2022-12-18T11:36:41;43.00;;;29.27;;
12407;SDS011;6268;48.188;17.134;2022-12-18T11:39:14;42.07;;;27.30;;
12407;SDS011;6268;48.188;17.134;2022-12-18T11:41:49;40.53;;;28.07;;
12407;SDS011;6268;48.188;17.134;2022-12-18T11:44:45;43.03;;;29.37;;
12407;SDS011;6268;48.188;17.134;2022-12-18T11:47:20;43.93;;;29.33;;
12407;SDS011;6268;48.188;17.134;2022-12-18T11:49:55;41.40;;;28.73;;
12407;SDS011;6268;48.188;17.134;2022-12-18T11:52:28;42.50;;;27.57;;
12407;SDS011;6268;48.188;17.134;2022-12-18T11:55:07;40.73;;;27.30;;
12407;SDS011;6268;48.188;17.134;2022-12-18T11:57:40;41.37;;;28.33;;
12407;SDS011;6268;48.188;17.134;2022-12-18T12:00:19;37.73;;;27.00;;
12407;SDS011;6268;48.188;17.134;2022-12-18T12:03:04;39.93;;;28.87;;
12407;SDS011;6268;48.188;17.134;2022-12-18T12:05:51;41.23;;;28.37;;
12407;SDS011;6268;48.188;17.134;2022-12-18T12:08:37;41.30;;;28.90;;
12407;SDS011;6268;48.188;17.134;2022-12-18T12:11:22;41.03;;;28.20;;
12407;SDS011;6268;48.188;17.134;2022-12-18T12:14:03;40.03;;;27.97;;
12407;SDS011;6268;48.188;17.134;2022-12-18T12:16:58;35.37;;;26.40;;
12407;SDS011;6268;48.188;17.134;2022-12-18T12:19:35;33.93;;;25.60;;
12407;SDS011;6268;48.188;17.134;2022-12-18T12:22:13;37.53;;;26.77;;
12407;SDS011;6268;48.188;17.134;2022-12-18T12:24:54;39.83;;;28.33;;
12407;SDS011;6268;48.188;17.134;2022-12-18T12:27:37;36.20;;;27.70;;
12407;SDS011;6268;48.188;17.134;2022-12-18T12:30:18;35.20;;;27.40;;
12407;SDS011;6268;48.188;17.134;2022-12-18T12:32:53;37.73;;;28.60;;
12407;SDS011;6268;48.188;17.134;2022-12-18T12:35:36;38.80;;;29.20;;
12407;SDS011;6268;48.188;17.134;2022-12-18T12:38:15;39.77;;;31.00;;
12407;SDS011;6268;48.188;17.134;2022-12-18T12:40:48;47.27;;;34.27;;
12407;SDS011;6268;48.188;17.134;2022-12-18T12:43:31;38.27;;;30.23;;
12407;SDS011;6268;48.188;17.134;2022-12-18T12:46:15;42.40;;;31.37;;
12407;SDS011;6268;48.188;17.134;2022-12-18T12:48:49;44.30;;;31.57;;
12407;SDS011;6268;48.188;17.134;2022-12-18T12:51:22;41.17;;;31.00;;
12407;SDS011;6268;48.188;17.134;2022-12-18T12:53:54;41.50;;;31.03;;
12407;SDS011;6268;48.188;17.134;2022-12-18T12:56:25;38.77;;;29.40;;
12407;SDS011;6268;48.188;17.134;2022-12-18T12:59:04;38.37;;;25.87;;
12407;SDS011;6268;48.188;17.134;2022-12-18T13:01:43;35.33;;;25.23;;
12407;SDS011;6268;48.188;17.134;2022-12-18T13:04:26;38.00;;;26.03;;
12407;SDS011;6268;48.188;17.134;2022-12-18T13:07:00;37.70;;;26.77;;
12407;SDS011;6268;48.188;17.134;2022-12-18T13:09:33;40.73;;;29.90;;
12407;SDS011;6268;48.188;17.134;2022-12-18T13:12:22;43.40;;;31.63;;
12407;SDS011;6268;48.188;17.134;2022-12-18T13:15:13;46.70;;;32.77;;
12407;SDS011;6268;48.188;17.134;2022-12-18T13:18:02;45.57;;;33.97;;
12407;SDS011;6268;48.188;17.134;2022-12-18T13:20:43;45.83;;;32.77;;
12407;SDS011;6268;48.188;17.134;2022-12-18T13:23:28;47.37;;;33.20;;
12407;SDS011;6268;48.188;17.134;2022-12-18T13:25:59;49.17;;;34.27;;
12407;SDS011;6268;48.188;17.134;2022-12-18T13:28:52;49.60;;;32.37;;
12407;SDS011;6268;48.188;17.134;2022-12-18T13:34:24;45.63;;;31.30;;
12407;SDS011;6268;48.188;17.134;2022-12-18T13:43:27;46.97;;;30.23;;
12407;SDS011;6268;48.188;17.134;2022-12-18T13:46:18;44.27;;;29.20;;
12407;SDS011;6268;48.188;17.134;2022-12-18T13:48:52;43.00;;;27.83;;
12407;SDS011;6268;48.188;17.134;2022-12-18T13:51:24;43.57;;;29.90;;
12407;SDS011;6268;48.188;17.134;2022-12-18T13:53:56;45.40;;;31.30;;
12407;SDS011;6268;48.188;17.134;2022-12-18T13:56:28;44.60;;;30.77;;
12407;SDS011;6268;48.188;17.134;2022-12-18T13:59:03;45.73;;;30.53;;
12407;SDS011;6268;48.188;17.134;2022-12-18T14:01:50;41.23;;;29.03;;
12407;SDS011;6268;48.188;17.134;2022-12-18T14:04:22;41.60;;;28.77;;
12407;SDS011;6268;48.188;17.134;2022-12-18T14:06:55;44.67;;;30.43;;
12407;SDS011;6268;48.188;17.134;2022-12-18T14:09:28;47.30;;;32.33;;
12407;SDS011;6268;48.188;17.134;2022-12-18T14:12:04;48.43;;;31.60;;
12407;SDS011;6268;48.188;17.134;2022-12-18T14:14:51;45.33;;;29.90;;
12407;SDS011;6268;48.188;17.134;2022-12-18T14:17:21;40.30;;;27.93;;
12407;SDS011;6268;48.188;17.134;2022-12-18T14:19:52;43.57;;;28.63;;
12407;SDS011;6268;48.188;17.134;2022-12-18T14:22:21;45.70;;;29.27;;
12407;SDS011;6268;48.188;17.134;2022-12-18T14:25:13;43.10;;;28.60;;
12407;SDS011;6268;48.188;17.134;2022-12-18T14:27:45;43.03;;;28.40;;
12407;SDS011;6268;48.188;17.134;2022-12-18T14:30:26;41.43;;;27.70;;
12407;SDS011;6268;48.188;17.134;2022-12-18T14:33:00;38.87;;;28.13;;
12407;SDS011;6268;48.188;17.134;2022-12-18T14:35:36;69.13;;;41.90;;
12407;SDS011;6268;48.188;17.134;2022-12-18T14:38:10;45.37;;;29.27;;
12407;SDS011;6268;48.188;17.134;2022-12-18T14:40:53;44.43;;;29.00;;
12407;SDS011;6268;48.188;17.134;2022-12-18T14:43:23;42.73;;;28.73;;
12407;SDS011;6268;48.188;17.134;2022-12-18T14:45:53;44.13;;;29.00;;
12407;SDS011;6268;48.188;17.134;2022-12-18T14:48:32;45.83;;;30.77;;
12407;SDS011;6268;48.188;17.134;2022-12-18T14:51:04;45.70;;;29.77;;
12407;SDS011;6268;48.188;17.134;2022-12-18T14:53:41;46.50;;;30.00;;
12407;SDS011;6268;48.188;17.134;2022-12-18T14:56:22;43.77;;;28.47;;
12407;SDS011;6268;48.188;17.134;2022-12-18T14:58:53;41.53;;;29.20;;
12407;SDS011;6268;48.188;17.134;2022-12-18T15:01:25;55.40;;;34.10;;
12407;SDS011;6268;48.188;17.134;2022-12-18T15:03:56;50.97;;;30.67;;
12407;SDS011;6268;48.188;17.134;2022-12-18T15:06:28;51.70;;;32.70;;
12407;SDS011;6268;48.188;17.134;2022-12-18T15:09:00;46.20;;;29.47;;